03:07
Airports
Links
Donate
Help keep this website running!
PayPal
Bitcoin
METAR
KRIW 180253Z AUTO 21011G17KT 10SM CLR 04/M09 A2961 RMK AO2 SLP045 T00391094 58026
Current Weather Conditions at KRIW
VFR 02:53:00 18-02-18
Automated station, no observer
Altimeter:29.61 hg
Temp:3.9°c 37°f
Dew point:-9.4°c 16°f
Wind:11 knots, 12.7 mph, 6 m/s, from 210°
Visibility:10.0 statute miles
(CLR) Clear
Past METAR reports
VFR 01:53:00 18-02-18
Automated station, no observer
Altimeter:29.65 hg
Temp:3.3°c 37°f
Dew point:-9.4°c 16°f
Wind:10 knots, 11.5 mph, 5 m/s, from 200°
Visibility:10.0 statute miles
(CLR) Clear
KRIW 180153Z AUTO 20010KT 10SM CLR 03/M09 A2965 RMK AO2 SLP061 T00331094
VFR 00:53:00 18-02-18
Automated station, no observer
Altimeter:29.69 hg
Temp:3.3°c 37°f
Dew point:-8.9°c 18°f
Wind:10 knots, 11.5 mph, 5 m/s, from 230°
Visibility:10.0 statute miles
(CLR) Clear
KRIW 180053Z AUTO 23010KT 10SM CLR 03/M09 A2969 RMK AO2 SLP074 T00331089
VFR 23:53:00 17-02-18
Automated station, no observer
Altimeter:29.70 hg
Temp:5.6°c 41°f
Dew point:-9.4°c 16°f
Wind:19 knots, 21.9 mph, 10 m/s, from 230°
Visibility:10.0 statute miles
(CLR) Clear
KRIW 172353Z AUTO 23019KT 10SM CLR 06/M09 A2970 RMK AO2 PK WND 22029/2336 SLP075 T00561094 10061 20006 56025
VFR 22:53:00 17-02-18
Automated station, no observer
Altimeter:29.72 hg
Temp:5.6°c 41°f
Dew point:-11.1°c 12°f
Wind:6 knots, 6.9 mph, 3 m/s, from 180°
Visibility:10.0 statute miles
(CLR) Clear
KRIW 172253Z AUTO 18006KT 10SM CLR 06/M11 A2972 RMK AO2 SLP074 T00561111
VFR 21:53:00 17-02-18
Automated station, no observer
Altimeter:29.75 hg
Temp:5.0°c 41°f
Dew point:-13.3°cf
Wind:8 knots, 9.2 mph, 4 m/s, from 190°
Visibility:10.0 statute miles
(CLR) Clear
KRIW 172153Z AUTO 19008KT 10SM CLR 05/M13 A2975 RMK AO2 SLP092 T00501133
TAF
KRIW 172323Z 1800/1824 25015G25KT P6SM SCT120 FM180100 25022G32KT P6SM BKN120 FM180300 31010G18KT P6SM BKN120 FM182100 04015G25KT 4SM -SN OVC020 FM182300 02005KT 1SM -SN OVC010
Forecast at KRIW
00:00 18-02-18 to 01:00 18-02-18
Wind:15 Knots from 250°
Visibility:6.21 statute miles
12000SCT Scattered
FM 01:00 18-02-18 to 03:00 18-02-18
Wind:22 Knots from 250°
Visibility:6.21 statute miles
12000BKN Broken
FM 03:00 18-02-18 to 21:00 18-02-18
Wind:10 Knots from 310°
Visibility:6.21 statute miles
12000BKN Broken
FM 21:00 18-02-18 to 23:00 18-02-18
-SN
Wind:15 Knots from 40°
Visibility:4.0 statute miles
2000OVC Overcast
FM 23:00 18-02-18 to 00:00 19-02-18
-SN
Wind:5 Knots from 20°
Visibility:1.0 statute miles
1000OVC Overcast